createdAt,value
2022-09-01T00:01:58.568Z,78.46
2022-09-01T00:04:27.397Z,78.53
2022-09-01T00:06:55.151Z,79.22
2022-09-01T00:09:36.565Z,78.97
2022-09-01T00:12:12.563Z,79.51
2022-09-01T00:14:41.589Z,79.90
2022-09-01T00:17:10.635Z,80.44
2022-09-01T00:19:44.694Z,80.86
2022-09-01T00:22:11.083Z,81.17
2022-09-01T00:24:44.562Z,81.38
2022-09-01T00:27:11.041Z,81.58
2022-09-01T00:29:44.567Z,81.47
2022-09-01T00:32:11.699Z,81.97
2022-09-01T00:34:44.539Z,82.58
2022-09-01T00:37:11.217Z,82.57
2022-09-01T00:39:37.850Z,82.62
2022-09-01T00:42:12.560Z,82.93
2022-09-01T00:44:39.366Z,82.74
2022-09-01T00:47:06.710Z,83.11
2022-09-01T00:49:52.544Z,83.00
2022-09-01T00:52:30.558Z,83.32
2022-09-01T00:55:06.544Z,83.70
2022-09-01T00:57:33.083Z,83.79
2022-09-01T01:00:12.528Z,83.78
2022-09-01T01:02:47.762Z,84.28
2022-09-01T01:05:15.699Z,84.30
2022-09-01T01:07:50.526Z,84.42
2022-09-01T01:10:20.623Z,84.37
2022-09-01T01:13:00.558Z,84.81
2022-09-01T01:15:27.389Z,84.84
2022-09-01T01:18:00.584Z,84.89
2022-09-01T01:20:50.228Z,84.82
2022-09-01T01:23:27.543Z,84.94
2022-09-01T01:25:57.477Z,85.23
2022-09-01T01:28:40.550Z,85.68
2022-09-01T01:31:15.040Z,85.27
2022-09-01T01:33:50.526Z,85.53
2022-09-01T01:36:38.744Z,85.41
2022-09-01T01:39:28.539Z,85.15
2022-09-01T01:41:58.691Z,85.28
2022-09-01T01:44:28.211Z,85.32
2022-09-01T01:47:04.548Z,85.13
2022-09-01T01:49:38.542Z,85.16
2022-09-01T01:52:12.541Z,85.15
2022-09-01T01:54:45.540Z,84.91
2022-09-01T01:57:24.545Z,84.97
2022-09-01T01:59:50.976Z,84.69
2022-09-01T02:02:24.555Z,84.60
2022-09-01T02:04:51.152Z,84.65
2022-09-01T02:07:24.545Z,84.55
2022-09-01T02:09:51.136Z,84.72
2022-09-01T02:12:25.535Z,85.11
2022-09-01T02:14:54.726Z,84.35
2022-09-01T02:17:22.087Z,83.99
2022-09-01T02:19:56.534Z,83.75
2022-09-01T02:22:23.005Z,83.38
2022-09-01T02:24:58.528Z,83.19
2022-09-01T02:27:26.855Z,83.62
2022-09-01T02:30:08.517Z,84.00
2022-09-01T02:32:41.515Z,84.06
2022-09-01T02:35:12.486Z,84.14
2022-09-01T02:37:46.513Z,84.20
2022-09-01T02:40:12.917Z,84.34
2022-09-01T02:42:41.601Z,84.42
2022-09-01T02:45:18.534Z,84.86
2022-09-01T02:47:45.532Z,85.27
2022-09-01T02:50:26.506Z,85.27
2022-09-01T02:53:03.303Z,85.54
2022-09-01T02:55:30.412Z,85.50
2022-09-01T02:57:57.795Z,85.73
2022-09-01T03:00:39.547Z,85.36
2022-09-01T03:03:07.256Z,85.29
2022-09-01T03:05:42.809Z,85.32
2022-09-01T03:08:12.199Z,85.60
2022-09-01T03:10:41.479Z,85.78
2022-09-01T03:13:19.525Z,85.94
2022-09-01T03:15:54.522Z,85.52
2022-09-01T03:18:21.215Z,85.95
2022-09-01T03:20:56.531Z,86.11
2022-09-01T03:23:25.279Z,86.34
2022-09-01T03:25:58.536Z,86.28
2022-09-01T03:28:25.094Z,86.13
2022-09-01T03:30:53.934Z,86.04
2022-09-01T03:33:28.525Z,85.89
2022-09-01T03:35:56.780Z,85.67
2022-09-01T03:38:32.519Z,85.62
2022-09-01T03:41:01.943Z,85.56
2022-09-01T03:43:37.514Z,85.35
2022-09-01T03:46:20.161Z,84.97
2022-09-01T03:49:09.521Z,84.66
2022-09-01T03:51:37.922Z,84.70
2022-09-01T03:54:11.500Z,85.03
2022-09-01T03:56:40.599Z,84.94
2022-09-01T03:59:13.714Z,85.02
2022-09-01T04:01:43.891Z,84.77
2022-09-01T04:04:22.525Z,84.81
2022-09-01T04:06:55.514Z,84.99
2022-09-01T04:09:21.911Z,85.12
2022-09-01T04:11:48.760Z,85.28
2022-09-01T04:14:22.495Z,85.46
2022-09-01T04:17:07.594Z,85.92
2022-09-01T04:19:44.588Z,86.15
2022-09-01T04:22:20.496Z,86.17
2022-09-01T04:24:46.944Z,86.52
2022-09-01T04:27:22.544Z,86.74
2022-09-01T04:29:50.027Z,86.65
2022-09-01T04:32:23.489Z,86.65
2022-09-01T04:34:50.530Z,86.58
2022-09-01T04:37:28.504Z,86.15
2022-09-01T04:39:57.280Z,86.12
2022-09-01T04:42:27.173Z,86.10
2022-09-01T04:45:02.083Z,85.77
2022-09-01T04:47:48.512Z,85.99
2022-09-01T04:50:17.153Z,85.62
2022-09-01T04:52:52.504Z,85.71
2022-09-01T04:55:19.128Z,85.07
2022-09-01T04:57:54.508Z,84.64
2022-09-01T05:00:22.532Z,84.61
2022-09-01T05:03:10.509Z,84.74
2022-09-01T05:05:43.298Z,84.41
2022-09-01T05:08:23.359Z,82.94
2022-09-01T05:10:55.431Z,82.30
2022-09-01T05:13:29.502Z,82.97
2022-09-01T05:16:06.150Z,81.70
2022-09-01T05:18:40.496Z,78.92
2022-09-01T05:21:17.507Z,75.07
2022-09-01T05:23:45.206Z,72.53
2022-09-01T05:26:30.470Z,71.06
2022-09-01T05:29:01.194Z,68.11
2022-09-01T05:31:42.497Z,65.99
2022-09-01T05:34:13.776Z,64.39
2022-09-01T05:36:52.500Z,63.17
2022-09-01T05:39:20.797Z,61.74
2022-09-01T05:41:49.269Z,61.38
2022-09-01T05:44:24.479Z,59.14
2022-09-01T05:46:57.546Z,58.27
2022-09-01T05:49:28.573Z,57.01
2022-09-01T05:52:04.480Z,56.53
2022-09-01T05:54:32.570Z,55.07
2022-09-01T05:57:30.283Z,54.97
2022-09-01T05:59:54.127Z,53.90
2022-09-01T06:02:30.590Z,54.14
2022-09-01T06:04:57.313Z,53.21
2022-09-01T06:07:37.478Z,54.64
2022-09-01T06:10:05.226Z,53.65
2022-09-01T06:12:55.657Z,53.43
2022-09-01T06:15:22.802Z,52.90
2022-09-01T06:17:56.526Z,52.89
2022-09-01T06:23:24.488Z,52.58
2022-09-01T06:25:58.508Z,50.93
2022-09-01T06:28:24.945Z,49.58
2022-09-01T06:30:52.447Z,49.48
2022-09-01T06:33:25.472Z,48.42
2022-09-01T06:35:55.887Z,49.22
2022-09-01T06:38:28.478Z,48.78
2022-09-01T06:41:10.483Z,49.85
2022-09-01T06:43:37.027Z,48.04
2022-09-01T06:46:09.489Z,47.48
2022-09-01T06:48:40.091Z,47.45
2022-09-01T06:51:19.709Z,46.54
2022-09-01T06:53:51.277Z,46.73
2022-09-01T06:56:31.908Z,45.74
2022-09-01T06:58:59.647Z,46.88
2022-09-01T07:01:33.545Z,46.28
2022-09-01T07:04:12.879Z,44.96
2022-09-01T07:09:47.339Z,43.83
2022-09-01T07:12:30.176Z,45.30
2022-09-01T07:18:03.474Z,43.39
2022-09-01T07:20:31.104Z,42.33
2022-09-01T07:23:05.731Z,41.84
2022-09-01T07:26:02.323Z,42.58
2022-09-01T07:28:38.496Z,42.24
2022-09-01T07:39:51.412Z,43.70
2022-09-01T07:45:32.679Z,43.10
2022-09-01T07:48:10.525Z,43.05
2022-09-01T07:51:35.268Z,42.28
2022-09-01T07:53:40.475Z,42.62
2022-09-01T07:56:12.621Z,41.38
2022-09-01T07:59:02.499Z,42.80
2022-09-01T08:01:35.957Z,43.88
2022-09-01T08:04:10.461Z,45.58
2022-09-01T08:06:43.539Z,46.95
2022-09-01T08:09:32.963Z,47.76
2022-09-01T08:12:06.400Z,47.69
2022-09-01T08:14:42.467Z,48.26
2022-09-01T08:17:18.291Z,48.93
2022-09-01T08:20:03.207Z,49.14
2022-09-01T08:22:29.678Z,48.56
2022-09-01T08:24:56.117Z,49.73
2022-09-01T08:27:29.472Z,47.93
2022-09-01T08:30:02.481Z,48.83
2022-09-01T08:32:28.856Z,47.96
2022-09-01T08:34:57.012Z,48.10
2022-09-01T08:37:30.456Z,46.15
2022-09-01T08:39:56.962Z,46.17
2022-09-01T08:42:54.464Z,45.80
2022-09-01T08:45:30.224Z,47.19
2022-09-01T08:48:57.150Z,47.60
2022-09-01T08:51:17.003Z,45.40
2022-09-01T08:54:03.465Z,44.94
2022-09-01T08:56:30.694Z,43.91
2022-09-01T08:59:04.505Z,44.47
2022-09-01T09:01:44.497Z,44.81
2022-09-01T09:04:24.496Z,43.85
2022-09-01T09:07:27.496Z,44.62
2022-09-01T09:10:03.625Z,44.71
2022-09-01T09:12:58.463Z,43.81
2022-09-01T09:15:43.667Z,43.07
2022-09-01T09:18:38.856Z,42.54
2022-09-01T09:21:26.485Z,42.29
2022-09-01T09:24:08.667Z,41.25
2022-09-01T09:26:42.741Z,41.96
2022-09-01T09:32:50.410Z,41.46
2022-09-01T09:35:32.454Z,40.86
2022-09-01T09:38:22.667Z,39.67
2022-09-01T09:41:27.001Z,39.74
2022-09-01T09:44:04.287Z,38.78
2022-09-01T09:46:45.487Z,39.32
2022-09-01T09:49:21.618Z,38.94
2022-09-01T09:52:09.491Z,39.45
2022-09-01T09:54:46.477Z,39.45
2022-09-01T09:57:16.125Z,38.62
2022-09-01T09:59:59.280Z,38.86
2022-09-01T10:02:36.856Z,38.61
2022-09-01T10:05:32.468Z,37.30
2022-09-01T10:08:06.439Z,37.61
2022-09-01T10:10:44.111Z,36.51
2022-09-01T10:13:24.452Z,37.58
2022-09-01T10:15:54.509Z,36.88
2022-09-01T10:18:32.613Z,38.18
2022-09-01T10:21:13.506Z,35.72
2022-09-01T10:23:48.487Z,35.92
2022-09-01T10:26:31.425Z,35.91
2022-09-01T10:29:15.703Z,36.74
2022-09-01T10:31:42.949Z,35.94
2022-09-01T10:34:22.599Z,35.16
2022-09-01T10:36:56.832Z,36.01
2022-09-01T10:39:31.131Z,35.89
2022-09-01T10:42:08.915Z,34.75
2022-09-01T10:44:50.100Z,35.47
2022-09-01T10:47:40.515Z,34.91
2022-09-01T10:50:40.459Z,35.15
2022-09-01T10:53:17.318Z,35.36
2022-09-01T10:55:49.261Z,36.54
2022-09-01T11:01:49.900Z,34.40
2022-09-01T11:04:21.371Z,34.70
2022-09-01T11:07:13.952Z,34.46
2022-09-01T11:09:50.471Z,33.99
2022-09-01T11:12:32.093Z,32.44
2022-09-01T11:15:48.469Z,33.34
2022-09-01T11:18:24.789Z,31.78
2022-09-01T11:20:58.486Z,32.58
2022-09-01T11:23:30.702Z,32.31
2022-09-01T11:26:50.471Z,32.38
2022-09-01T11:29:51.966Z,31.76
2022-09-01T11:32:30.664Z,31.29
2022-09-01T11:34:57.942Z,32.27
2022-09-01T11:37:27.582Z,33.92
2022-09-01T11:40:15.536Z,32.32
2022-09-01T11:42:46.682Z,33.60
2022-09-01T11:45:28.522Z,32.54
2022-09-01T11:48:08.465Z,32.13
2022-09-01T11:50:37.585Z,31.27
2022-09-01T11:53:16.488Z,30.70
2022-09-01T11:56:01.492Z,32.21
2022-09-01T11:58:27.850Z,32.67
2022-09-01T12:00:56.921Z,32.96
2022-09-01T12:03:36.555Z,33.54
2022-09-01T12:06:05.911Z,31.60
2022-09-01T12:08:43.468Z,32.20
2022-09-01T12:11:18.246Z,32.02
2022-09-01T12:14:11.648Z,32.17
2022-09-01T12:16:42.107Z,31.81
2022-09-01T12:19:16.453Z,32.01
2022-09-01T12:21:43.931Z,31.87
2022-09-01T12:24:26.464Z,32.89
2022-09-01T12:26:55.751Z,31.64
2022-09-01T12:29:32.153Z,33.93
2022-09-01T12:32:06.596Z,33.32
2022-09-01T12:34:33.041Z,32.73
2022-09-01T12:37:05.699Z,33.61
2022-09-01T12:39:54.505Z,33.54
2022-09-01T12:42:40.759Z,32.18
2022-09-01T12:45:16.501Z,31.89
2022-09-01T12:47:50.346Z,31.87
2022-09-01T12:50:23.423Z,33.35
2022-09-01T12:53:03.474Z,32.15
2022-09-01T12:55:48.578Z,33.24
2022-09-01T12:58:28.448Z,32.11
2022-09-01T13:00:58.662Z,31.36
2022-09-01T13:03:34.600Z,31.95
2022-09-01T13:06:03.206Z,32.72
2022-09-01T13:08:42.440Z,32.01
2022-09-01T13:11:17.978Z,32.02
2022-09-01T13:13:50.658Z,32.34
2022-09-01T13:16:17.183Z,31.54
2022-09-01T13:24:09.831Z,30.92
2022-09-01T13:26:36.300Z,31.69
2022-09-01T13:29:10.441Z,31.25
2022-09-01T13:31:36.846Z,31.11
2022-09-01T13:34:22.269Z,30.53
2022-09-01T13:36:52.313Z,31.39
2022-09-01T13:39:28.606Z,32.14
2022-09-01T13:42:04.767Z,31.54
2022-09-01T13:44:37.456Z,32.17
2022-09-01T13:50:09.139Z,31.06
2022-09-01T13:52:36.357Z,31.84
2022-09-01T13:55:03.178Z,32.82
2022-09-01T13:57:38.491Z,31.48
2022-09-01T14:00:14.437Z,31.73
2022-09-01T14:02:50.639Z,32.22
2022-09-01T14:05:22.648Z,32.91
2022-09-01T14:07:56.434Z,31.54
2022-09-01T14:10:33.688Z,31.14
2022-09-01T14:13:08.439Z,32.47
2022-09-01T14:15:35.858Z,31.27
2022-09-01T14:18:03.021Z,31.37
2022-09-01T14:20:40.432Z,30.84
2022-09-01T14:23:08.676Z,31.32
2022-09-01T14:25:35.513Z,31.33
2022-09-01T14:28:09.450Z,32.54
2022-09-01T14:30:35.955Z,31.27
2022-09-01T14:33:10.426Z,30.80
2022-09-01T14:35:42.943Z,31.22
2022-09-01T14:38:18.514Z,30.58
2022-09-01T14:40:54.488Z,30.78
2022-09-01T14:43:21.901Z,31.56
2022-09-01T14:45:56.454Z,31.66
2022-09-01T14:48:30.786Z,32.02
2022-09-01T14:51:03.442Z,31.17
2022-09-01T14:53:31.220Z,31.39
2022-09-01T14:55:58.432Z,31.04
2022-09-01T14:58:32.466Z,30.72
2022-09-01T15:01:11.885Z,31.08
2022-09-01T15:03:52.486Z,31.20
2022-09-01T15:06:20.536Z,30.72
2022-09-01T15:09:00.467Z,32.03
2022-09-01T15:11:28.392Z,30.76
2022-09-01T15:14:02.449Z,31.37
2022-09-01T15:16:28.847Z,31.06
2022-09-01T15:19:02.475Z,30.67
2022-09-01T15:21:32.031Z,30.57
2022-09-01T15:24:05.461Z,31.99
2022-09-01T15:26:32.245Z,30.78
2022-09-01T15:29:05.452Z,31.83
2022-09-01T15:31:33.702Z,31.69
2022-09-01T15:34:08.426Z,31.57
2022-09-01T15:36:37.350Z,31.18
2022-09-01T15:39:10.430Z,31.59
2022-09-01T15:41:40.197Z,30.37
2022-09-01T15:44:14.441Z,30.91
2022-09-01T15:46:50.510Z,31.20
2022-09-01T15:49:24.452Z,31.24
2022-09-01T15:51:54.728Z,31.00
2022-09-01T15:54:30.493Z,31.49
2022-09-01T15:56:57.378Z,31.69
2022-09-01T15:59:30.435Z,31.79
2022-09-01T16:01:57.442Z,31.13
2022-09-01T16:04:30.426Z,31.67
2022-09-01T16:07:04.454Z,30.60
2022-09-01T16:09:30.869Z,31.26
2022-09-01T16:12:03.432Z,31.95
2022-09-01T16:14:31.023Z,32.03
2022-09-01T16:17:19.436Z,31.59
2022-09-01T16:19:45.890Z,31.96
2022-09-01T16:22:40.433Z,32.23
2022-09-01T16:25:29.717Z,31.86
2022-09-01T16:28:04.443Z,32.07
2022-09-01T16:30:30.955Z,32.20
2022-09-01T16:33:02.008Z,33.28
2022-09-01T16:35:51.660Z,33.36
2022-09-01T16:38:46.790Z,33.02
2022-09-01T16:41:56.435Z,33.55
2022-09-01T16:45:00.426Z,33.09
2022-09-01T16:47:59.120Z,33.66
2022-09-01T16:50:56.422Z,34.36
2022-09-01T16:53:50.286Z,33.71
2022-09-01T16:56:58.463Z,34.05
2022-09-01T16:59:40.499Z,34.67
2022-09-01T17:02:49.538Z,35.09
2022-09-01T17:05:44.780Z,35.72
2022-09-01T17:08:43.290Z,35.38
2022-09-01T17:11:25.418Z,35.22
2022-09-01T17:13:52.321Z,36.27
2022-09-01T17:16:31.461Z,35.89
2022-09-01T17:19:17.456Z,36.44
2022-09-01T17:21:52.884Z,36.41
2022-09-01T17:24:40.561Z,36.97
2022-09-01T17:27:20.575Z,36.48
2022-09-01T17:29:51.790Z,36.83
2022-09-01T17:32:37.438Z,37.10
2022-09-01T17:35:07.605Z,37.72
2022-09-01T17:37:46.429Z,37.46
2022-09-01T17:40:31.192Z,37.67
2022-09-01T17:43:52.422Z,37.96
2022-09-01T17:46:28.440Z,38.59
2022-09-01T17:49:15.430Z,38.47
2022-09-01T17:52:00.717Z,39.13
2022-09-01T17:55:10.448Z,38.82
2022-09-01T17:57:52.011Z,39.23
2022-09-01T18:00:30.455Z,39.73
2022-09-01T18:03:18.826Z,40.88
2022-09-01T18:05:59.440Z,41.03
2022-09-01T18:08:40.167Z,41.16
2022-09-01T18:11:29.442Z,41.81
2022-09-01T18:14:01.972Z,41.44
2022-09-01T18:16:38.444Z,41.65
2022-09-01T18:19:12.022Z,42.01
2022-09-01T18:21:52.423Z,42.63
2022-09-01T18:24:42.038Z,42.72
2022-09-01T18:27:15.440Z,43.66
2022-09-01T18:29:41.823Z,44.39
2022-09-01T18:32:26.422Z,44.53
2022-09-01T18:35:07.952Z,44.72
2022-09-01T18:38:00.446Z,44.73
2022-09-01T18:40:32.856Z,44.66
2022-09-01T18:43:30.444Z,44.95
2022-09-01T18:46:24.811Z,45.14
2022-09-01T18:49:36.417Z,45.51
2022-09-01T18:52:46.438Z,45.67
2022-09-01T18:55:37.779Z,45.76
2022-09-01T18:58:48.429Z,45.79
2022-09-01T19:01:25.102Z,46.44
2022-09-01T19:04:14.435Z,46.67
2022-09-01T19:07:11.480Z,46.80
2022-09-01T19:10:08.428Z,46.78
2022-09-01T19:12:49.873Z,47.48
2022-09-01T19:15:26.538Z,47.61
2022-09-01T19:18:13.392Z,47.73
2022-09-01T19:21:02.501Z,48.08
2022-09-01T19:23:53.469Z,48.33
2022-09-01T19:26:30.436Z,49.41
2022-09-01T19:29:19.578Z,49.89
2022-09-01T19:32:06.414Z,50.17
2022-09-01T19:34:39.449Z,50.58
2022-09-01T19:37:13.430Z,51.10
2022-09-01T19:39:44.535Z,51.25
2022-09-01T19:42:34.435Z,51.24
2022-09-01T19:45:13.404Z,51.39
2022-09-01T19:47:46.409Z,51.49
2022-09-01T19:50:22.528Z,51.26
2022-09-01T19:53:04.418Z,51.11
2022-09-01T19:55:50.874Z,51.33
2022-09-01T19:58:28.434Z,51.28
2022-09-01T20:00:58.528Z,52.04
2022-09-01T20:03:46.474Z,52.03
2022-09-01T20:06:21.409Z,52.35
2022-09-01T20:09:22.484Z,52.46
2022-09-01T20:12:09.443Z,52.64
2022-09-01T20:15:14.422Z,52.61
2022-09-01T20:17:51.895Z,52.70
2022-09-01T20:20:32.434Z,52.77
2022-09-01T20:23:28.724Z,52.57
2022-09-01T20:26:16.391Z,52.40
2022-09-01T20:29:03.055Z,52.32
2022-09-01T20:31:48.429Z,52.66
2022-09-01T20:34:47.485Z,52.65
2022-09-01T20:37:30.606Z,52.21
2022-09-01T20:40:04.421Z,52.37
2022-09-01T20:42:48.452Z,52.64
2022-09-01T20:45:17.940Z,53.09
2022-09-01T20:48:00.430Z,52.68
2022-09-01T20:50:39.847Z,52.57
2022-09-01T20:53:25.439Z,52.68
2022-09-01T20:56:06.703Z,52.86
2022-09-01T20:58:43.447Z,52.99
2022-09-01T21:01:19.411Z,53.35
2022-09-01T21:04:12.423Z,53.22
2022-09-01T21:07:00.741Z,53.45
2022-09-01T21:10:13.409Z,53.26
2022-09-01T21:12:52.255Z,53.76
2022-09-01T21:15:40.428Z,53.95
2022-09-01T21:18:25.391Z,54.06
2022-09-01T21:21:18.454Z,54.34
2022-09-01T21:23:44.843Z,54.22
2022-09-01T21:26:11.652Z,54.11
2022-09-01T21:28:48.148Z,53.86
2022-09-01T21:31:14.797Z,53.74
2022-09-01T21:33:41.283Z,53.17
2022-09-01T21:36:14.403Z,53.49
2022-09-01T21:38:47.395Z,53.25
2022-09-01T21:41:20.400Z,52.86
2022-09-01T21:43:47.240Z,52.99
2022-09-01T21:46:22.441Z,53.01
2022-09-01T21:48:48.957Z,52.88
2022-09-01T21:51:22.373Z,53.36
2022-09-01T21:53:48.755Z,53.58
2022-09-01T21:56:25.958Z,52.96
2022-09-01T21:58:52.877Z,53.25
2022-09-01T22:01:26.456Z,53.41
2022-09-01T22:04:00.396Z,53.05
2022-09-01T22:06:34.397Z,52.94
2022-09-01T22:09:20.462Z,53.25
2022-09-01T22:11:54.402Z,53.06
2022-09-01T22:14:21.708Z,52.87
2022-09-01T22:16:59.043Z,53.08
2022-09-01T22:19:27.787Z,53.07
2022-09-01T22:21:54.723Z,52.70
2022-09-01T22:24:27.424Z,52.90
2022-09-01T22:26:53.843Z,52.95
2022-09-01T22:29:26.388Z,52.95
2022-09-01T22:31:52.842Z,52.67
2022-09-01T22:34:26.597Z,52.69
2022-09-01T22:36:53.254Z,52.93
2022-09-01T22:39:19.933Z,52.66
2022-09-01T22:41:56.371Z,52.48
2022-09-01T22:44:23.187Z,52.35
2022-09-01T22:46:56.388Z,52.56
2022-09-01T22:49:22.954Z,52.26
2022-09-01T22:51:55.394Z,51.81
2022-09-01T22:54:28.384Z,51.62
2022-09-01T22:56:54.753Z,51.57
2022-09-01T22:59:32.422Z,51.46
2022-09-01T23:02:01.125Z,51.30
2022-09-01T23:04:34.395Z,51.61
2022-09-01T23:07:00.846Z,51.22
2022-09-01T23:18:54.446Z,51.49
2022-09-01T23:21:24.697Z,51.56
2022-09-01T23:23:58.678Z,51.33
2022-09-01T23:26:33.387Z,51.85
2022-09-01T23:28:59.959Z,51.94
2022-09-01T23:31:36.446Z,52.11
2022-09-01T23:34:04.756Z,52.20
2022-09-01T23:36:31.431Z,52.65
2022-09-01T23:39:04.358Z,52.14
2022-09-01T23:41:40.352Z,52.41
2022-09-01T23:44:16.388Z,52.63
2022-09-01T23:46:45.596Z,52.63
2022-09-01T23:49:22.395Z,52.71
2022-09-01T23:51:55.382Z,52.66
2022-09-01T23:54:28.366Z,53.20
2022-09-01T23:56:54.732Z,53.61
2022-09-01T23:59:28.377Z,54.26
